Exeter, United Kingdom

2:55 AM BST on August 30, 2016 (GMT +0100)
Exeter | | Change Station

Elev 98 ft 50.74 °N, 3.41 °W | Updated 5 minutes ago

Shallow Fog
Shallow Fog
54 °F
Feels Like 54 °F
N
1
Wind Variable Wind from Variable

Today
High -- | Low -- °F
--% Chance of Precip.
Yesterday
High -- | Low -- °F
Precip. -- in
Pressure 30.27 in
Visibility 5.0 miles
Clouds Few 400 ft
Dew Point 52 °F
Humidity 94%
Rainfall 0.00 in
Snow Depth Not available.
6:24 AM 8:02 PM
Waning Crescent, 6% visible
METAR EGTE 300150Z VRB01KT 8000 1500E MIFG FEW004 12/11 Q1025
Pressure 30.27 in
Visibility 5.0 miles
Clouds Few 400 ft
Dew Point 52 °F
Humidity 94%
Rainfall 0.00 in
Snow Depth Not available.
6:24 AM 8:02 PM
Waning Crescent, 6% visible
METAR EGTE 300150Z VRB01KT 8000 1500E MIFG FEW004 12/11 Q1025

10-Day Weather Forecast

×

Almanac

Astronomy

Aug. 30, 2016 Rise Set
Actual Time
Civil Twilight
Nautical Twilight
Astronomical Twilight
Moon
Length of Visible Light
Length of Day
Tomorrow will be .
, % of the Moon is Illuminated

Today's Extremes

Country Highs Country Lows

Community

WunderPhotos

Upload Photos

1,935,715 photos uploaded!

WunderBlog® & News

Nearby

Air Quality

  Air Quality AQ Index Pollutant
Not available.

Snow Depth

Station Depth Elevation

Earthquake Activity

City Distance Mag. Time & Date
Minimum magnitude displayed is 2.5.

Coastal Water Temperatures

Place Temperature

Stations

Nearby Weather Stations

Station Location Temp. Windchill Dew Point Humidity Wind Precip. Elev Updated Type